createdAt,value
2022-09-14T00:01:34.182Z,10.20
2022-09-14T00:04:05.857Z,9.03
2022-09-14T00:06:33.966Z,7.30
2022-09-14T00:09:06.868Z,8.50
2022-09-14T00:11:37.357Z,8.70
2022-09-14T00:14:07.327Z,8.97
2022-09-14T00:16:38.604Z,9.03
2022-09-14T00:19:08.773Z,6.90
2022-09-14T00:21:38.407Z,7.13
2022-09-14T00:24:08.408Z,7.93
2022-09-14T00:26:36.743Z,8.43
2022-09-14T00:29:06.603Z,8.43
2022-09-14T00:31:38.217Z,8.17
2022-09-14T00:34:07.785Z,9.47
2022-09-14T00:36:40.347Z,10.47
2022-09-14T00:39:09.418Z,6.90
2022-09-14T00:41:44.476Z,7.10
2022-09-14T00:44:45.496Z,7.50
2022-09-14T00:47:17.393Z,7.23
2022-09-14T00:49:45.968Z,7.17
2022-09-14T00:52:20.631Z,8.80
2022-09-14T00:54:51.930Z,13.43
2022-09-14T00:57:21.172Z,7.50
2022-09-14T00:59:53.076Z,7.37
2022-09-14T01:02:24.749Z,10.30
2022-09-14T01:04:53.396Z,7.40
2022-09-14T01:07:33.381Z,7.57
2022-09-14T01:10:08.668Z,11.97
2022-09-14T01:12:48.685Z,7.60
2022-09-14T01:15:23.254Z,9.93
2022-09-14T01:18:08.307Z,6.23
2022-09-14T01:20:40.982Z,10.50
2022-09-14T01:23:14.898Z,8.90
2022-09-14T01:26:18.484Z,6.97
2022-09-14T01:28:54.489Z,7.70
2022-09-14T01:31:29.963Z,6.97
2022-09-14T01:34:06.344Z,7.10
2022-09-14T01:36:37.515Z,7.77
2022-09-14T01:39:05.528Z,8.03
2022-09-14T01:41:34.055Z,7.43
2022-09-14T01:44:10.555Z,8.40
2022-09-14T01:46:41.822Z,7.43
2022-09-14T01:49:15.021Z,8.00
2022-09-14T01:51:48.196Z,7.80
2022-09-14T01:54:22.178Z,6.97
2022-09-14T01:56:54.061Z,7.90
2022-09-14T01:59:26.241Z,8.27
2022-09-14T02:01:59.977Z,7.53
2022-09-14T02:04:33.184Z,7.57
2022-09-14T02:07:01.078Z,8.67
2022-09-14T02:09:29.224Z,7.93
2022-09-14T02:12:00.754Z,7.57
2022-09-14T02:14:30.756Z,6.97
2022-09-14T02:16:58.882Z,8.30
2022-09-14T02:19:31.287Z,7.87
2022-09-14T02:21:59.706Z,9.90
2022-09-14T02:24:29.276Z,7.20
2022-09-14T02:26:59.182Z,10.37
2022-09-14T02:29:27.053Z,7.17
2022-09-14T02:32:05.684Z,8.17
2022-09-14T02:34:43.035Z,8.03
2022-09-14T02:37:16.568Z,7.00
2022-09-14T02:39:51.685Z,7.03
2022-09-14T02:42:30.287Z,6.47
2022-09-14T02:45:04.881Z,6.60
2022-09-14T02:47:44.188Z,8.73
2022-09-14T02:50:21.424Z,6.20
2022-09-14T02:52:56.684Z,6.80
2022-09-14T02:55:29.339Z,8.10
2022-09-14T02:58:04.975Z,8.50
2022-09-14T03:00:36.616Z,6.93
2022-09-14T03:03:06.080Z,7.57
2022-09-14T03:05:34.777Z,7.43
2022-09-14T03:08:03.962Z,8.67
2022-09-14T03:10:32.409Z,7.87
2022-09-14T03:13:00.846Z,7.73
2022-09-14T03:15:29.449Z,10.03
2022-09-14T03:17:57.745Z,10.47
2022-09-14T03:20:28.966Z,8.40
2022-09-14T03:22:56.770Z,10.40
2022-09-14T03:25:24.579Z,8.67
2022-09-14T03:27:53.923Z,8.47
2022-09-14T03:30:22.149Z,7.80
2022-09-14T03:32:50.249Z,8.50
2022-09-14T03:35:19.223Z,9.80
2022-09-14T03:37:48.496Z,7.37
2022-09-14T03:40:21.603Z,7.30
2022-09-14T03:42:52.222Z,6.60
2022-09-14T03:45:21.465Z,7.97
2022-09-14T03:47:50.199Z,6.13
2022-09-14T03:50:19.841Z,6.60
2022-09-14T03:52:49.489Z,7.17
2022-09-14T03:55:19.174Z,7.80
2022-09-14T03:57:47.089Z,9.60
2022-09-14T04:00:15.750Z,6.67
2022-09-14T04:02:45.075Z,6.93
2022-09-14T04:05:13.293Z,7.27
2022-09-14T04:07:41.220Z,7.40
2022-09-14T04:10:11.548Z,6.80
2022-09-14T04:12:40.288Z,8.27
2022-09-14T04:15:09.200Z,6.80
2022-09-14T04:17:37.105Z,8.67
2022-09-14T04:20:05.393Z,9.37
2022-09-14T04:22:34.783Z,7.30
2022-09-14T04:25:02.864Z,7.27
2022-09-14T04:27:32.383Z,8.03
2022-09-14T04:30:00.287Z,8.93
2022-09-14T04:32:33.566Z,8.60
2022-09-14T04:35:02.368Z,8.10
2022-09-14T04:37:32.734Z,8.10
2022-09-14T04:40:00.733Z,9.87
2022-09-14T04:42:30.889Z,11.47
2022-09-14T04:45:00.256Z,28.07
2022-09-14T04:47:30.319Z,44.33
2022-09-14T04:49:58.237Z,19.43
2022-09-14T04:52:26.231Z,12.33
2022-09-14T04:54:54.099Z,11.87
2022-09-14T04:57:21.940Z,9.60
2022-09-14T04:59:49.809Z,9.20
2022-09-14T05:02:19.236Z,10.27
2022-09-14T05:04:47.290Z,13.50
2022-09-14T05:07:15.152Z,7.90
2022-09-14T05:09:43.624Z,7.23
2022-09-14T05:12:11.492Z,8.40
2022-09-14T05:14:39.294Z,8.37
2022-09-14T05:17:07.134Z,7.87
2022-09-14T05:19:36.463Z,10.03
2022-09-14T05:22:04.473Z,7.40
2022-09-14T05:24:32.472Z,9.30
2022-09-14T05:27:02.189Z,8.30
2022-09-14T05:29:31.915Z,8.53
2022-09-14T05:31:59.979Z,7.70
2022-09-14T05:34:27.911Z,10.07
2022-09-14T05:36:57.113Z,8.80
2022-09-14T05:39:24.970Z,8.17
2022-09-14T05:41:52.835Z,11.80
2022-09-14T05:44:20.633Z,8.03
2022-09-14T05:46:48.470Z,7.90
2022-09-14T05:49:16.320Z,9.23
2022-09-14T05:51:44.187Z,8.90
2022-09-14T05:54:13.394Z,19.30
2022-09-14T05:56:41.183Z,11.40
2022-09-14T05:59:10.717Z,9.87
2022-09-14T06:01:38.643Z,9.50
2022-09-14T06:04:06.483Z,8.20
2022-09-14T06:06:34.760Z,9.53
2022-09-14T06:09:02.631Z,6.43
2022-09-14T06:11:36.207Z,7.80
2022-09-14T06:14:04.333Z,6.60
2022-09-14T06:16:32.177Z,9.00
2022-09-14T06:19:00.940Z,8.50
2022-09-14T06:21:31.054Z,9.73
2022-09-14T06:23:58.927Z,7.47
2022-09-14T06:26:27.353Z,6.90
2022-09-14T06:28:56.622Z,8.83
2022-09-14T06:31:25.368Z,8.90
2022-09-14T06:33:53.896Z,9.67
2022-09-14T06:36:23.001Z,13.23
2022-09-14T06:38:51.192Z,12.70
2022-09-14T06:41:21.673Z,14.10
2022-09-14T06:43:50.609Z,9.80
2022-09-14T06:46:21.693Z,9.30
2022-09-14T06:48:51.190Z,9.10
2022-09-14T06:51:20.824Z,10.57
2022-09-14T06:53:49.974Z,11.60
2022-09-14T06:56:18.756Z,10.10
2022-09-14T06:58:46.994Z,10.00
2022-09-14T07:01:16.613Z,13.17
2022-09-14T07:03:46.934Z,9.17
2022-09-14T07:06:16.800Z,8.70
2022-09-14T07:08:45.269Z,12.00
2022-09-14T07:11:14.408Z,12.47
2022-09-14T07:13:42.417Z,12.77
2022-09-14T07:16:11.224Z,13.53
2022-09-14T07:18:39.673Z,13.60
2022-09-14T07:21:11.657Z,12.47
2022-09-14T07:23:41.414Z,9.27
2022-09-14T07:26:11.781Z,10.03
2022-09-14T07:28:40.309Z,10.80
2022-09-14T07:31:17.021Z,12.40
2022-09-14T07:33:44.950Z,11.33
2022-09-14T07:36:15.288Z,18.77
2022-09-14T07:38:58.444Z,13.10
2022-09-14T07:41:28.608Z,11.17
2022-09-14T07:44:00.195Z,12.90
2022-09-14T07:46:29.387Z,17.00
2022-09-14T07:48:58.409Z,9.13
2022-09-14T07:51:28.941Z,10.63
2022-09-14T07:53:57.255Z,12.40
2022-09-14T07:56:25.923Z,8.80
2022-09-14T07:59:07.133Z,8.57
2022-09-14T08:01:44.093Z,14.33
2022-09-14T08:04:12.050Z,14.50
2022-09-14T08:06:42.260Z,12.93
2022-09-14T08:09:10.121Z,13.70
2022-09-14T08:11:38.563Z,12.47
2022-09-14T08:14:09.750Z,10.97
2022-09-14T08:16:38.671Z,10.80
2022-09-14T08:19:10.727Z,11.47
2022-09-14T08:21:42.789Z,10.30
2022-09-14T08:24:17.565Z,9.60
2022-09-14T08:26:45.986Z,8.27
2022-09-14T08:29:14.217Z,8.97
2022-09-14T08:31:43.269Z,9.87
2022-09-14T08:34:11.104Z,14.20
2022-09-14T08:36:40.243Z,9.07
2022-09-14T08:39:10.360Z,7.80
2022-09-14T08:41:45.637Z,12.67
2022-09-14T08:44:19.541Z,8.20
2022-09-14T08:46:50.041Z,10.13
2022-09-14T08:49:26.015Z,7.60
2022-09-14T08:51:53.822Z,12.00
2022-09-14T08:54:21.593Z,10.33
2022-09-14T08:56:56.571Z,9.70
2022-09-14T08:59:37.219Z,16.40
2022-09-14T09:02:37.201Z,14.50
2022-09-14T09:05:22.220Z,18.23
2022-09-14T09:07:58.417Z,15.70
2022-09-14T09:10:28.185Z,15.57
2022-09-14T09:13:00.425Z,14.23
2022-09-14T09:15:32.442Z,14.10
2022-09-14T09:18:03.230Z,17.03
2022-09-14T09:20:35.354Z,14.77
2022-09-14T09:23:12.573Z,14.47
2022-09-14T09:25:56.184Z,15.33
2022-09-14T09:28:27.159Z,14.30
2022-09-14T09:30:58.117Z,13.80
2022-09-14T09:33:37.639Z,18.23
2022-09-14T09:36:15.330Z,20.83
2022-09-14T09:38:43.568Z,23.00
2022-09-14T09:41:17.231Z,15.00
2022-09-14T09:44:01.428Z,20.73
2022-09-14T09:46:31.565Z,15.83
2022-09-14T09:49:00.429Z,16.70
2022-09-14T09:51:30.610Z,16.03
2022-09-14T09:54:02.579Z,13.37
2022-09-14T09:56:33.892Z,15.93
2022-09-14T09:59:03.410Z,17.60
2022-09-14T10:01:33.800Z,20.90
2022-09-14T10:04:05.996Z,16.90
2022-09-14T10:06:42.603Z,15.83
2022-09-14T10:09:16.124Z,16.80
2022-09-14T10:11:45.683Z,21.73
2022-09-14T10:14:31.232Z,20.80
2022-09-14T10:17:08.203Z,21.43
2022-09-14T10:19:36.128Z,23.17
2022-09-14T10:22:17.536Z,27.07
2022-09-14T10:24:55.134Z,21.93
2022-09-14T10:27:37.826Z,20.97
2022-09-14T10:30:14.776Z,19.80
2022-09-14T10:32:46.276Z,27.70
2022-09-14T10:35:15.447Z,23.97
2022-09-14T10:38:00.637Z,13.30
2022-09-14T10:40:34.127Z,13.90
2022-09-14T10:43:12.348Z,11.70
2022-09-14T10:45:50.316Z,10.33
2022-09-14T10:48:40.949Z,10.50
2022-09-14T10:51:30.941Z,13.60
2022-09-14T10:54:06.741Z,10.27
2022-09-14T10:56:43.625Z,10.57
2022-09-14T10:59:27.052Z,14.20
2022-09-14T11:02:40.110Z,9.00
2022-09-14T11:05:13.892Z,8.47
2022-09-14T11:07:50.689Z,9.17
2022-09-14T11:10:28.932Z,10.67
2022-09-14T11:13:13.978Z,9.47
2022-09-14T11:15:49.025Z,12.77
2022-09-14T11:18:25.640Z,12.13
2022-09-14T11:21:05.523Z,14.63
2022-09-14T11:23:44.962Z,11.27
2022-09-14T11:26:16.223Z,10.43
2022-09-14T11:28:48.661Z,10.50
2022-09-14T11:31:22.987Z,9.90
2022-09-14T11:33:56.892Z,12.27
2022-09-14T11:36:29.402Z,10.97
2022-09-14T11:39:06.925Z,12.63
2022-09-14T11:41:43.489Z,10.80
2022-09-14T11:44:16.836Z,12.00
2022-09-14T11:46:49.365Z,15.33
2022-09-14T11:49:26.120Z,10.67
2022-09-14T11:51:59.079Z,15.30
2022-09-14T11:54:26.978Z,11.27
2022-09-14T11:56:59.382Z,10.77
2022-09-14T11:59:37.673Z,12.17
2022-09-14T12:02:54.414Z,16.13
2022-09-14T12:05:32.227Z,9.40
2022-09-14T12:08:02.960Z,10.60
2022-09-14T12:10:31.656Z,11.40
2022-09-14T12:13:20.001Z,12.90
2022-09-14T12:15:48.089Z,9.33
2022-09-14T12:18:23.128Z,11.57
2022-09-14T12:21:02.585Z,9.63
2022-09-14T12:23:33.813Z,10.10
2022-09-14T12:26:15.848Z,11.13
2022-09-14T12:28:49.018Z,8.60
2022-09-14T12:31:40.265Z,10.03
2022-09-14T12:34:20.599Z,9.20
2022-09-14T12:37:28.170Z,10.30
2022-09-14T12:40:36.207Z,12.17
2022-09-14T12:43:49.550Z,10.50
2022-09-14T12:46:41.769Z,12.27
2022-09-14T12:49:39.594Z,13.67
2022-09-14T12:52:34.047Z,12.00
2022-09-14T12:55:16.104Z,13.00
2022-09-14T12:57:50.039Z,11.10
2022-09-14T13:00:20.606Z,12.20
2022-09-14T13:03:15.909Z,13.30
2022-09-14T13:05:46.078Z,11.73
2022-09-14T13:08:22.060Z,11.30
2022-09-14T13:10:52.738Z,12.07
2022-09-14T13:13:24.864Z,12.67
2022-09-14T13:15:56.911Z,13.30
2022-09-14T13:18:30.753Z,11.97
2022-09-14T13:21:00.796Z,9.70
2022-09-14T13:23:33.594Z,13.37
2022-09-14T13:26:09.136Z,11.77
2022-09-14T13:28:37.083Z,11.03
2022-09-14T13:31:06.450Z,13.30
2022-09-14T13:33:34.329Z,12.50
2022-09-14T13:36:04.620Z,13.83
2022-09-14T13:38:37.525Z,9.67
2022-09-14T13:41:08.125Z,12.77
2022-09-14T13:43:36.375Z,12.13
2022-09-14T13:46:08.047Z,13.17
2022-09-14T13:48:40.030Z,14.30
2022-09-14T13:51:09.250Z,11.57
2022-09-14T13:53:41.487Z,12.73
2022-09-14T13:56:20.997Z,11.93
2022-09-14T13:58:50.781Z,10.47
2022-09-14T14:01:27.726Z,10.60
2022-09-14T14:03:55.712Z,10.53
2022-09-14T14:06:27.036Z,12.53
2022-09-14T14:09:02.968Z,11.33
2022-09-14T14:11:35.623Z,11.20
2022-09-14T14:14:19.046Z,12.03
2022-09-14T14:17:20.075Z,13.73
2022-09-14T14:19:48.571Z,17.23
2022-09-14T14:22:20.418Z,14.03
2022-09-14T14:25:12.474Z,10.47
2022-09-14T14:27:43.973Z,15.70
2022-09-14T14:30:15.914Z,10.67
2022-09-14T14:32:43.977Z,15.27
2022-09-14T14:35:16.835Z,13.53
2022-09-14T14:37:44.965Z,14.07
2022-09-14T14:40:14.322Z,12.47
2022-09-14T14:42:43.286Z,11.87
2022-09-14T14:45:15.765Z,13.60
2022-09-14T14:47:43.618Z,17.17
2022-09-14T14:50:15.723Z,11.10
2022-09-14T14:52:43.661Z,10.43
2022-09-14T14:55:11.966Z,7.33
2022-09-14T14:57:41.185Z,7.53
2022-09-14T15:00:15.348Z,5.97
2022-09-14T15:02:43.690Z,7.00
2022-09-14T15:05:12.629Z,6.33
2022-09-14T15:07:40.873Z,7.40
2022-09-14T15:10:12.143Z,6.87
2022-09-14T15:12:41.380Z,8.03
2022-09-14T15:15:13.317Z,6.30
2022-09-14T15:17:41.145Z,5.93
2022-09-14T15:20:10.001Z,6.00
2022-09-14T15:22:38.411Z,5.80
2022-09-14T15:25:07.432Z,5.60
2022-09-14T15:27:35.488Z,8.03
2022-09-14T15:30:06.798Z,7.03
2022-09-14T15:32:34.867Z,6.07
2022-09-14T15:35:03.070Z,7.37
2022-09-14T15:37:31.005Z,5.20
2022-09-14T15:39:58.903Z,6.00
2022-09-14T15:42:27.178Z,8.43
2022-09-14T15:44:55.038Z,5.80
2022-09-14T15:47:24.187Z,6.00
2022-09-14T15:49:52.929Z,7.90
2022-09-14T15:52:21.039Z,7.03
2022-09-14T15:54:49.294Z,7.07
2022-09-14T15:57:17.388Z,13.13
2022-09-14T15:59:45.170Z,7.87
2022-09-14T16:02:13.057Z,7.00
2022-09-14T16:04:42.299Z,10.37
2022-09-14T16:07:10.610Z,8.80
2022-09-14T16:09:39.489Z,6.77
2022-09-14T16:12:08.163Z,10.50
2022-09-14T16:14:36.249Z,11.47
2022-09-14T16:17:05.068Z,11.83
2022-09-14T16:19:33.264Z,7.90
2022-09-14T16:22:02.556Z,9.63
2022-09-14T16:24:31.000Z,9.70
2022-09-14T16:26:59.132Z,7.30
2022-09-14T16:29:27.368Z,6.83
2022-09-14T16:31:55.564Z,9.23
2022-09-14T16:34:24.833Z,7.23
2022-09-14T16:36:53.274Z,14.57
2022-09-14T16:39:25.086Z,12.60
2022-09-14T16:41:53.970Z,8.10
2022-09-14T16:44:25.552Z,8.30
2022-09-14T16:46:54.663Z,11.77
2022-09-14T16:49:27.218Z,8.80
2022-09-14T16:51:56.250Z,11.13
2022-09-14T16:54:27.153Z,11.80
2022-09-14T16:56:56.952Z,9.27
2022-09-14T16:59:25.562Z,8.67
2022-09-14T17:01:54.858Z,8.27
2022-09-14T17:04:24.344Z,10.77
2022-09-14T17:06:53.181Z,10.70
2022-09-14T17:09:23.467Z,9.60
2022-09-14T17:11:54.025Z,10.13
2022-09-14T17:14:23.491Z,9.67
2022-09-14T17:16:51.383Z,8.97
2022-09-14T17:19:19.293Z,8.93
2022-09-14T17:21:48.224Z,8.20
2022-09-14T17:24:18.688Z,10.70
2022-09-14T17:26:47.686Z,11.50
2022-09-14T17:29:17.563Z,14.27
2022-09-14T17:31:46.566Z,9.70
2022-09-14T17:34:16.941Z,10.37
2022-09-14T17:36:45.536Z,10.77
2022-09-14T17:39:15.449Z,13.50
2022-09-14T17:41:44.253Z,12.07
2022-09-14T17:44:15.231Z,12.07
2022-09-14T17:46:51.984Z,17.03
2022-09-14T17:49:21.464Z,14.77
2022-09-14T17:51:49.454Z,14.10
2022-09-14T17:54:17.709Z,15.60
2022-09-14T17:56:45.765Z,18.60
2022-09-14T17:59:15.634Z,17.17
2022-09-14T18:01:45.023Z,16.77
2022-09-14T18:04:15.167Z,18.23
2022-09-14T18:06:44.776Z,21.53
2022-09-14T18:09:15.651Z,20.67
2022-09-14T18:11:44.589Z,21.47
2022-09-14T18:14:14.383Z,21.83
2022-09-14T18:16:43.376Z,16.87
2022-09-14T18:19:12.889Z,17.63
2022-09-14T18:21:41.351Z,20.00
2022-09-14T18:24:10.634Z,22.33
2022-09-14T18:26:39.015Z,23.63
2022-09-14T18:29:07.041Z,18.70
2022-09-14T18:31:35.056Z,24.00
2022-09-14T18:34:03.173Z,19.50
2022-09-14T18:36:32.502Z,20.20
2022-09-14T18:39:00.563Z,17.77
2022-09-14T18:41:31.200Z,21.50
2022-09-14T18:43:59.333Z,18.83
2022-09-14T18:46:28.666Z,20.30
2022-09-14T18:48:58.331Z,17.57
2022-09-14T18:51:26.891Z,17.33
2022-09-14T18:54:01.085Z,17.87
2022-09-14T18:56:29.701Z,21.10
2022-09-14T18:58:57.761Z,18.63
2022-09-14T19:01:26.471Z,16.63
2022-09-14T19:03:55.991Z,21.13
2022-09-14T19:06:24.141Z,19.07
2022-09-14T19:08:52.635Z,16.93
2022-09-14T19:11:23.706Z,19.17
2022-09-14T19:13:56.892Z,20.13
2022-09-14T19:16:25.385Z,19.90
2022-09-14T19:18:53.463Z,19.37
2022-09-14T19:21:24.445Z,18.43
2022-09-14T19:24:00.176Z,23.67
2022-09-14T19:26:31.981Z,22.70
2022-09-14T19:29:01.145Z,19.53
2022-09-14T19:31:30.526Z,19.13
2022-09-14T19:33:58.611Z,19.30
2022-09-14T19:36:27.318Z,20.80
2022-09-14T19:38:57.265Z,19.97
2022-09-14T19:41:25.615Z,16.77
2022-09-14T19:43:55.037Z,17.47
2022-09-14T19:46:24.304Z,15.83
2022-09-14T19:48:52.733Z,16.83
2022-09-14T19:51:22.722Z,17.10
2022-09-14T19:53:52.349Z,17.77
2022-09-14T19:56:21.834Z,17.90
2022-09-14T19:58:52.188Z,17.43
2022-09-14T20:01:23.709Z,15.77
2022-09-14T20:03:51.981Z,16.07
2022-09-14T20:06:23.464Z,18.90
2022-09-14T20:08:53.187Z,16.60
2022-09-14T20:11:23.411Z,16.93
2022-09-14T20:13:54.679Z,14.23
2022-09-14T20:16:26.502Z,20.17
2022-09-14T20:18:54.932Z,21.17
2022-09-14T20:21:25.064Z,19.73
2022-09-14T20:24:15.127Z,14.83
2022-09-14T20:26:44.628Z,14.07
2022-09-14T20:29:12.597Z,13.43
2022-09-14T20:31:42.042Z,15.60
2022-09-14T20:34:10.290Z,15.70
2022-09-14T20:36:38.743Z,16.50
2022-09-14T20:39:06.766Z,21.90
2022-09-14T20:41:35.976Z,19.93
2022-09-14T20:44:05.109Z,19.33
2022-09-14T20:46:36.147Z,17.07
2022-09-14T20:49:07.621Z,22.23
2022-09-14T20:51:36.061Z,19.90
2022-09-14T20:54:04.065Z,18.23
2022-09-14T20:56:33.643Z,19.77
2022-09-14T20:59:03.104Z,19.73
2022-09-14T21:01:33.443Z,23.27
2022-09-14T21:04:04.380Z,17.90
2022-09-14T21:06:35.922Z,23.17
2022-09-14T21:09:03.773Z,17.37
2022-09-14T21:11:31.701Z,20.53
2022-09-14T21:13:59.618Z,19.27
2022-09-14T21:16:29.822Z,20.40
2022-09-14T21:18:59.063Z,21.10
2022-09-14T21:21:27.740Z,18.47
2022-09-14T21:23:58.021Z,21.20
2022-09-14T21:26:27.228Z,19.37
2022-09-14T21:28:57.184Z,17.93
2022-09-14T21:31:26.279Z,18.20
2022-09-14T21:33:55.732Z,16.97
2022-09-14T21:36:27.516Z,17.90
2022-09-14T21:38:59.628Z,18.40
2022-09-14T21:41:29.062Z,18.13
2022-09-14T21:43:57.967Z,17.20
2022-09-14T21:46:26.945Z,18.63
2022-09-14T21:48:56.003Z,17.60
2022-09-14T21:51:26.507Z,17.47
2022-09-14T21:53:55.816Z,22.60
2022-09-14T21:56:27.084Z,21.87
2022-09-14T21:58:56.811Z,18.40
2022-09-14T22:01:25.720Z,21.93
2022-09-14T22:03:55.011Z,18.97
2022-09-14T22:06:28.277Z,21.57
2022-09-14T22:08:59.804Z,19.40
2022-09-14T22:11:31.075Z,24.93
2022-09-14T22:14:00.786Z,21.00
2022-09-14T22:16:30.146Z,21.20
2022-09-14T22:18:59.856Z,19.87
2022-09-14T22:21:30.291Z,21.73
2022-09-14T22:24:00.516Z,15.63
2022-09-14T22:26:31.402Z,15.60
2022-09-14T22:29:00.090Z,14.47
2022-09-14T22:31:29.609Z,16.40
2022-09-14T22:33:58.750Z,19.77
2022-09-14T22:36:27.101Z,13.17
2022-09-14T22:38:56.581Z,13.23
2022-09-14T22:41:26.091Z,12.43
2022-09-14T22:43:56.068Z,10.00
2022-09-14T22:46:25.129Z,10.70
2022-09-14T22:48:53.644Z,13.80
2022-09-14T22:51:26.852Z,12.17
2022-09-14T22:53:56.103Z,12.67
2022-09-14T22:56:25.716Z,13.73
2022-09-14T22:58:55.129Z,15.30
2022-09-14T23:01:25.852Z,14.70
2022-09-14T23:03:57.082Z,18.00
2022-09-14T23:06:29.128Z,18.43
2022-09-14T23:08:57.196Z,20.40
2022-09-14T23:11:25.449Z,18.17
2022-09-14T23:13:53.371Z,20.20
2022-09-14T23:16:26.591Z,19.73
2022-09-14T23:18:57.639Z,17.60
2022-09-14T23:21:26.043Z,17.90
2022-09-14T23:23:55.349Z,19.23
2022-09-14T23:26:23.929Z,18.90
2022-09-14T23:28:53.415Z,16.97
2022-09-14T23:31:23.258Z,18.37
2022-09-14T23:33:52.033Z,19.40
2022-09-14T23:36:22.031Z,18.90
2022-09-14T23:38:50.336Z,20.53
2022-09-14T23:41:19.554Z,16.67
2022-09-14T23:43:47.597Z,20.40
2022-09-14T23:46:16.119Z,18.47
2022-09-14T23:48:46.215Z,17.30
2022-09-14T23:51:14.386Z,20.67
2022-09-14T23:53:42.693Z,18.30
2022-09-14T23:56:11.631Z,17.07
2022-09-14T23:58:41.271Z,17.93
